sensor_id;sensor_type;location;lat;lon;timestamp;temperature;humidity
45849;DHT22;31567;54.600;9.842;2023-02-28T00:02:47;7.20;99.50
45849;DHT22;31567;54.600;9.842;2023-02-28T00:06:27;7.20;99.60
45849;DHT22;31567;54.600;9.842;2023-02-28T00:10:09;7.30;99.70
45849;DHT22;31567;54.600;9.842;2023-02-28T00:13:49;7.30;99.70
45849;DHT22;31567;54.600;9.842;2023-02-28T00:17:28;7.40;99.90
45849;DHT22;31567;54.600;9.842;2023-02-28T00:21:08;7.40;99.90
45849;DHT22;31567;54.600;9.842;2023-02-28T00:24:48;7.40;99.90
45849;DHT22;31567;54.600;9.842;2023-02-28T00:28:27;7.40;99.90
45849;DHT22;31567;54.600;9.842;2023-02-28T00:32:07;7.30;99.90
45849;DHT22;31567;54.600;9.842;2023-02-28T00:35:46;7.30;99.90
45849;DHT22;31567;54.600;9.842;2023-02-28T00:39:27;7.30;99.90
45849;DHT22;31567;54.600;9.842;2023-02-28T00:43:07;7.30;99.90
45849;DHT22;31567;54.600;9.842;2023-02-28T00:46:46;7.30;99.90
45849;DHT22;31567;54.600;9.842;2023-02-28T00:50:26;7.30;99.90
45849;DHT22;31567;54.600;9.842;2023-02-28T00:54:05;7.30;99.90
45849;DHT22;31567;54.600;9.842;2023-02-28T00:57:45;7.30;99.90
45849;DHT22;31567;54.600;9.842;2023-02-28T01:01:25;7.30;99.90
45849;DHT22;31567;54.600;9.842;2023-02-28T01:05:04;7.30;99.90
45849;DHT22;31567;54.600;9.842;2023-02-28T01:08:44;7.30;99.90
45849;DHT22;31567;54.600;9.842;2023-02-28T01:12:24;7.30;99.90
45849;DHT22;31567;54.600;9.842;2023-02-28T01:16:04;7.30;99.90
45849;DHT22;31567;54.600;9.842;2023-02-28T01:19:43;7.30;99.90
45849;DHT22;31567;54.600;9.842;2023-02-28T01:23:23;7.30;99.90
45849;DHT22;31567;54.600;9.842;2023-02-28T01:27:03;7.30;99.90
45849;DHT22;31567;54.600;9.842;2023-02-28T01:30:42;7.30;99.90
45849;DHT22;31567;54.600;9.842;2023-02-28T01:34:22;7.20;99.90
45849;DHT22;31567;54.600;9.842;2023-02-28T01:38:02;7.20;99.90
45849;DHT22;31567;54.600;9.842;2023-02-28T01:41:41;7.20;99.90
45849;DHT22;31567;54.600;9.842;2023-02-28T01:45:26;7.20;99.90
45849;DHT22;31567;54.600;9.842;2023-02-28T01:49:14;7.10;99.90
45849;DHT22;31567;54.600;9.842;2023-02-28T01:52:57;7.10;99.90
45849;DHT22;31567;54.600;9.842;2023-02-28T01:57:27;7.10;99.90
45849;DHT22;31567;54.600;9.842;2023-02-28T02:00:41;7.10;99.90
45849;DHT22;31567;54.600;9.842;2023-02-28T02:04:23;7.10;99.90
45849;DHT22;31567;54.600;9.842;2023-02-28T02:08:08;7.10;99.90
45849;DHT22;31567;54.600;9.842;2023-02-28T02:11:48;7.00;99.90
45849;DHT22;31567;54.600;9.842;2023-02-28T02:27:33;6.90;99.90
45849;DHT22;31567;54.600;9.842;2023-02-28T02:31:29;6.90;99.90
45849;DHT22;31567;54.600;9.842;2023-02-28T02:35:39;6.80;99.90
45849;DHT22;31567;54.600;9.842;2023-02-28T02:39:50;6.80;99.90
45849;DHT22;31567;54.600;9.842;2023-02-28T02:43:44;6.80;99.90
45849;DHT22;31567;54.600;9.842;2023-02-28T02:47:29;6.70;99.90
45849;DHT22;31567;54.600;9.842;2023-02-28T02:51:18;6.60;99.90
45849;DHT22;31567;54.600;9.842;2023-02-28T02:55:00;6.60;99.90
45849;DHT22;31567;54.600;9.842;2023-02-28T02:58:43;6.60;99.90
45849;DHT22;31567;54.600;9.842;2023-02-28T03:02:23;6.50;99.90
45849;DHT22;31567;54.600;9.842;2023-02-28T03:06:04;6.50;99.90
45849;DHT22;31567;54.600;9.842;2023-02-28T03:09:52;6.50;99.90
45849;DHT22;31567;54.600;9.842;2023-02-28T03:21:38;6.40;99.90
45849;DHT22;31567;54.600;9.842;2023-02-28T03:29:38;6.40;99.90
45849;DHT22;31567;54.600;9.842;2023-02-28T03:33:24;6.40;99.90
45849;DHT22;31567;54.600;9.842;2023-02-28T03:37:11;6.50;99.90
45849;DHT22;31567;54.600;9.842;2023-02-28T03:41:15;6.40;99.90
45849;DHT22;31567;54.600;9.842;2023-02-28T03:45:04;6.50;99.90
45849;DHT22;31567;54.600;9.842;2023-02-28T03:49:22;6.50;99.90
45849;DHT22;31567;54.600;9.842;2023-02-28T03:57:01;6.40;99.90
45849;DHT22;31567;54.600;9.842;2023-02-28T04:00:47;6.40;99.90
45849;DHT22;31567;54.600;9.842;2023-02-28T04:04:28;6.40;99.90
45849;DHT22;31567;54.600;9.842;2023-02-28T04:08:08;6.30;99.90
45849;DHT22;31567;54.600;9.842;2023-02-28T04:11:52;6.20;99.90
45849;DHT22;31567;54.600;9.842;2023-02-28T04:15:31;6.00;99.90
45849;DHT22;31567;54.600;9.842;2023-02-28T04:19:12;5.90;99.90
45849;DHT22;31567;54.600;9.842;2023-02-28T04:22:52;5.90;99.90
45849;DHT22;31567;54.600;9.842;2023-02-28T04:26:33;5.80;99.90
45849;DHT22;31567;54.600;9.842;2023-02-28T04:30:13;5.80;99.90
45849;DHT22;31567;54.600;9.842;2023-02-28T04:33:53;5.80;99.90
45849;DHT22;31567;54.600;9.842;2023-02-28T04:37:32;5.80;99.90
45849;DHT22;31567;54.600;9.842;2023-02-28T04:41:14;5.70;99.90
45849;DHT22;31567;54.600;9.842;2023-02-28T04:44:54;5.60;99.90
45849;DHT22;31567;54.600;9.842;2023-02-28T04:48:36;5.50;99.90
45849;DHT22;31567;54.600;9.842;2023-02-28T04:52:16;5.50;99.90
45849;DHT22;31567;54.600;9.842;2023-02-28T04:55:56;5.30;99.90
45849;DHT22;31567;54.600;9.842;2023-02-28T04:59:36;5.20;99.90
45849;DHT22;31567;54.600;9.842;2023-02-28T05:03:15;5.10;99.90
45849;DHT22;31567;54.600;9.842;2023-02-28T05:06:55;5.10;99.90
45849;DHT22;31567;54.600;9.842;2023-02-28T05:10:34;5.10;99.90
45849;DHT22;31567;54.600;9.842;2023-02-28T05:14:14;5.10;99.90
45849;DHT22;31567;54.600;9.842;2023-02-28T05:17:53;5.10;99.90
45849;DHT22;31567;54.600;9.842;2023-02-28T05:21:35;5.00;99.90
45849;DHT22;31567;54.600;9.842;2023-02-28T05:25:20;4.90;99.90
45849;DHT22;31567;54.600;9.842;2023-02-28T05:29:02;4.80;99.90
45849;DHT22;31567;54.600;9.842;2023-02-28T05:32:41;4.70;99.90
45849;DHT22;31567;54.600;9.842;2023-02-28T05:36:24;4.60;99.90
45849;DHT22;31567;54.600;9.842;2023-02-28T05:40:07;4.50;99.90
45849;DHT22;31567;54.600;9.842;2023-02-28T05:43:49;4.40;99.90
45849;DHT22;31567;54.600;9.842;2023-02-28T05:47:29;4.30;99.90
45849;DHT22;31567;54.600;9.842;2023-02-28T05:51:09;4.20;99.90
45849;DHT22;31567;54.600;9.842;2023-02-28T05:54:49;4.20;99.90
45849;DHT22;31567;54.600;9.842;2023-02-28T05:58:28;4.00;99.90
45849;DHT22;31567;54.600;9.842;2023-02-28T06:02:14;4.00;99.90
45849;DHT22;31567;54.600;9.842;2023-02-28T06:05:55;3.90;99.90
45849;DHT22;31567;54.600;9.842;2023-02-28T06:09:35;3.80;99.90
45849;DHT22;31567;54.600;9.842;2023-02-28T06:13:15;3.90;99.90
45849;DHT22;31567;54.600;9.842;2023-02-28T06:16:55;3.80;99.90
45849;DHT22;31567;54.600;9.842;2023-02-28T06:20:35;3.80;99.90
45849;DHT22;31567;54.600;9.842;2023-02-28T06:24:15;3.80;99.90
45849;DHT22;31567;54.600;9.842;2023-02-28T06:27:55;3.90;99.90
45849;DHT22;31567;54.600;9.842;2023-02-28T06:31:34;3.80;99.90
45849;DHT22;31567;54.600;9.842;2023-02-28T06:35:14;3.70;99.90
45849;DHT22;31567;54.600;9.842;2023-02-28T06:38:54;3.70;99.90
45849;DHT22;31567;54.600;9.842;2023-02-28T06:42:35;3.70;99.90
45849;DHT22;31567;54.600;9.842;2023-02-28T06:46:14;3.80;99.90
45849;DHT22;31567;54.600;9.842;2023-02-28T06:49:54;3.90;99.90
45849;DHT22;31567;54.600;9.842;2023-02-28T06:53:34;4.10;99.90
45849;DHT22;31567;54.600;9.842;2023-02-28T06:57:14;4.10;99.90
45849;DHT22;31567;54.600;9.842;2023-02-28T07:00:53;4.20;99.90
45849;DHT22;31567;54.600;9.842;2023-02-28T07:04:33;4.20;99.90
45849;DHT22;31567;54.600;9.842;2023-02-28T07:08:12;4.30;99.90
45849;DHT22;31567;54.600;9.842;2023-02-28T07:11:52;4.40;99.90
45849;DHT22;31567;54.600;9.842;2023-02-28T07:15:32;4.50;99.90
45849;DHT22;31567;54.600;9.842;2023-02-28T07:19:11;4.60;99.90
45849;DHT22;31567;54.600;9.842;2023-02-28T07:22:51;4.80;99.90
45849;DHT22;31567;54.600;9.842;2023-02-28T07:26:35;4.90;99.90
45849;DHT22;31567;54.600;9.842;2023-02-28T07:30:15;5.00;99.90
45849;DHT22;31567;54.600;9.842;2023-02-28T07:33:54;5.10;99.90
45849;DHT22;31567;54.600;9.842;2023-02-28T07:37:35;5.10;99.90
45849;DHT22;31567;54.600;9.842;2023-02-28T07:41:17;5.30;99.90
45849;DHT22;31567;54.600;9.842;2023-02-28T07:44:57;5.30;99.90
45849;DHT22;31567;54.600;9.842;2023-02-28T07:48:37;5.30;99.90
45849;DHT22;31567;54.600;9.842;2023-02-28T07:52:17;5.40;99.90
45849;DHT22;31567;54.600;9.842;2023-02-28T07:55:58;5.50;99.90
45849;DHT22;31567;54.600;9.842;2023-02-28T07:59:38;5.60;99.90
45849;DHT22;31567;54.600;9.842;2023-02-28T08:03:18;5.60;99.90
45849;DHT22;31567;54.600;9.842;2023-02-28T08:06:58;5.70;99.90
45849;DHT22;31567;54.600;9.842;2023-02-28T08:10:38;5.80;99.90
45849;DHT22;31567;54.600;9.842;2023-02-28T08:14:17;5.80;99.90
45849;DHT22;31567;54.600;9.842;2023-02-28T08:17:57;5.90;99.90
45849;DHT22;31567;54.600;9.842;2023-02-28T08:21:36;6.00;99.90
45849;DHT22;31567;54.600;9.842;2023-02-28T08:25:16;6.00;99.90
45849;DHT22;31567;54.600;9.842;2023-02-28T08:28:56;6.00;99.90
45849;DHT22;31567;54.600;9.842;2023-02-28T08:32:35;6.20;99.90
45849;DHT22;31567;54.600;9.842;2023-02-28T08:36:15;6.20;99.90
45849;DHT22;31567;54.600;9.842;2023-02-28T08:39:54;6.30;99.90
45849;DHT22;31567;54.600;9.842;2023-02-28T08:43:35;6.20;99.90
45849;DHT22;31567;54.600;9.842;2023-02-28T08:47:14;6.30;99.90
45849;DHT22;31567;54.600;9.842;2023-02-28T08:50:59;6.30;99.90
45849;DHT22;31567;54.600;9.842;2023-02-28T08:54:39;6.30;99.90
45849;DHT22;31567;54.600;9.842;2023-02-28T08:58:18;6.40;99.90
45849;DHT22;31567;54.600;9.842;2023-02-28T09:01:58;6.50;99.90
45849;DHT22;31567;54.600;9.842;2023-02-28T09:05:37;6.60;99.90
45849;DHT22;31567;54.600;9.842;2023-02-28T09:09:17;6.70;99.90
45849;DHT22;31567;54.600;9.842;2023-02-28T09:12:57;6.90;99.90
45849;DHT22;31567;54.600;9.842;2023-02-28T09:16:36;7.00;99.90
45849;DHT22;31567;54.600;9.842;2023-02-28T09:20:16;7.20;99.90
45849;DHT22;31567;54.600;9.842;2023-02-28T09:23:56;7.30;99.90
45849;DHT22;31567;54.600;9.842;2023-02-28T09:27:35;7.40;99.90
45849;DHT22;31567;54.600;9.842;2023-02-28T09:31:18;7.50;99.90
45849;DHT22;31567;54.600;9.842;2023-02-28T09:35:01;7.60;99.90
45849;DHT22;31567;54.600;9.842;2023-02-28T09:38:40;7.70;99.90
45849;DHT22;31567;54.600;9.842;2023-02-28T09:42:27;7.80;99.90
45849;DHT22;31567;54.600;9.842;2023-02-28T09:46:32;7.90;99.90
45849;DHT22;31567;54.600;9.842;2023-02-28T09:54:40;8.00;99.80
45849;DHT22;31567;54.600;9.842;2023-02-28T09:58:34;8.10;99.80
45849;DHT22;31567;54.600;9.842;2023-02-28T10:09:53;8.30;99.00
45849;DHT22;31567;54.600;9.842;2023-02-28T10:13:35;8.40;98.90
45849;DHT22;31567;54.600;9.842;2023-02-28T10:17:27;8.40;98.70
45849;DHT22;31567;54.600;9.842;2023-02-28T10:25:20;8.50;98.70
45849;DHT22;31567;54.600;9.842;2023-02-28T10:29:00;8.60;98.60
45849;DHT22;31567;54.600;9.842;2023-02-28T10:32:47;8.70;98.50
45849;DHT22;31567;54.600;9.842;2023-02-28T10:36:27;8.70;98.20
45849;DHT22;31567;54.600;9.842;2023-02-28T10:44:21;8.80;98.20
45849;DHT22;31567;54.600;9.842;2023-02-28T10:48:03;8.90;98.20
45849;DHT22;31567;54.600;9.842;2023-02-28T10:51:44;9.00;98.10
45849;DHT22;31567;54.600;9.842;2023-02-28T10:55:25;9.10;97.90
45849;DHT22;31567;54.600;9.842;2023-02-28T11:02:48;9.20;97.60
45849;DHT22;31567;54.600;9.842;2023-02-28T11:06:33;9.20;97.20
45849;DHT22;31567;54.600;9.842;2023-02-28T11:10:20;9.30;97.20
45849;DHT22;31567;54.600;9.842;2023-02-28T11:14:04;9.40;97.10
45849;DHT22;31567;54.600;9.842;2023-02-28T11:17:53;9.50;96.80
45849;DHT22;31567;54.600;9.842;2023-02-28T11:21:36;9.50;96.60
45849;DHT22;31567;54.600;9.842;2023-02-28T11:25:22;9.70;96.60
45849;DHT22;31567;54.600;9.842;2023-02-28T11:37:02;10.00;96.10
45849;DHT22;31567;54.600;9.842;2023-02-28T11:40:55;10.10;96.10
45849;DHT22;31567;54.600;9.842;2023-02-28T11:45:03;10.10;95.90
45849;DHT22;31567;54.600;9.842;2023-02-28T11:48:58;10.00;95.90
45849;DHT22;31567;54.600;9.842;2023-02-28T11:52:53;10.10;96.00
45849;DHT22;31567;54.600;9.842;2023-02-28T11:56:48;10.10;95.70
45849;DHT22;31567;54.600;9.842;2023-02-28T12:00:52;10.40;95.80
45849;DHT22;31567;54.600;9.842;2023-02-28T12:08:44;10.50;94.90
45849;DHT22;31567;54.600;9.842;2023-02-28T12:27:54;11.30;93.60
45849;DHT22;31567;54.600;9.842;2023-02-28T12:31:36;11.40;93.20
45849;DHT22;31567;54.600;9.842;2023-02-28T12:35:26;11.40;93.10
45849;DHT22;31567;54.600;9.842;2023-02-28T12:43:02;11.50;93.10
45849;DHT22;31567;54.600;9.842;2023-02-28T12:46:46;11.40;93.00
45849;DHT22;31567;54.600;9.842;2023-02-28T12:50:28;11.50;93.20
45849;DHT22;31567;54.600;9.842;2023-02-28T12:54:22;11.50;93.10
45849;DHT22;31567;54.600;9.842;2023-02-28T13:10:16;11.60;92.70
45849;DHT22;31567;54.600;9.842;2023-02-28T13:14:03;11.60;92.70
45849;DHT22;31567;54.600;9.842;2023-02-28T13:17:48;11.60;92.70
45849;DHT22;31567;54.600;9.842;2023-02-28T13:21:29;11.60;92.80
45849;DHT22;31567;54.600;9.842;2023-02-28T13:48:45;12.10;91.90
45849;DHT22;31567;54.600;9.842;2023-02-28T13:52:24;12.10;91.50
45849;DHT22;31567;54.600;9.842;2023-02-28T14:04:28;12.40;90.90
45849;DHT22;31567;54.600;9.842;2023-02-28T14:08:21;12.50;90.90
45849;DHT22;31567;54.600;9.842;2023-02-28T14:16:24;12.60;90.70
45849;DHT22;31567;54.600;9.842;2023-02-28T14:20:15;12.60;90.60
45849;DHT22;31567;54.600;9.842;2023-02-28T14:27:48;12.60;90.30
45849;DHT22;31567;54.600;9.842;2023-02-28T14:31:37;12.70;90.30
45849;DHT22;31567;54.600;9.842;2023-02-28T14:39:35;12.90;90.50
45849;DHT22;31567;54.600;9.842;2023-02-28T14:43:25;12.90;90.00
45849;DHT22;31567;54.600;9.842;2023-02-28T14:47:14;12.90;90.00
45849;DHT22;31567;54.600;9.842;2023-02-28T14:50:58;13.00;90.10
45849;DHT22;31567;54.600;9.842;2023-02-28T14:54:39;12.90;90.10
45849;DHT22;31567;54.600;9.842;2023-02-28T14:58:27;12.90;90.10
45849;DHT22;31567;54.600;9.842;2023-02-28T15:02:18;13.00;89.90
45849;DHT22;31567;54.600;9.842;2023-02-28T15:06:17;13.00;89.40
45849;DHT22;31567;54.600;9.842;2023-02-28T15:10:26;13.10;89.20
45849;DHT22;31567;54.600;9.842;2023-02-28T15:14:07;13.20;89.10
45849;DHT22;31567;54.600;9.842;2023-02-28T15:17:52;13.20;89.10
45849;DHT22;31567;54.600;9.842;2023-02-28T15:21:40;13.30;89.30
45849;DHT22;31567;54.600;9.842;2023-02-28T15:25:22;13.40;88.90
45849;DHT22;31567;54.600;9.842;2023-02-28T15:29:07;13.40;88.40
45849;DHT22;31567;54.600;9.842;2023-02-28T15:36:42;13.60;88.20
45849;DHT22;31567;54.600;9.842;2023-02-28T15:44:25;13.60;87.40
45849;DHT22;31567;54.600;9.842;2023-02-28T15:48:15;13.70;87.70
45849;DHT22;31567;54.600;9.842;2023-02-28T15:51:58;13.60;88.00
45849;DHT22;31567;54.600;9.842;2023-02-28T15:55:38;13.50;88.40
45849;DHT22;31567;54.600;9.842;2023-02-28T15:59:25;13.50;89.00
45849;DHT22;31567;54.600;9.842;2023-02-28T16:03:35;13.30;88.90
45849;DHT22;31567;54.600;9.842;2023-02-28T16:07:16;13.10;89.00
45849;DHT22;31567;54.600;9.842;2023-02-28T16:10:56;12.90;89.40
45849;DHT22;31567;54.600;9.842;2023-02-28T16:14:36;12.70;89.80
45849;DHT22;31567;54.600;9.842;2023-02-28T16:18:17;12.60;90.10
45849;DHT22;31567;54.600;9.842;2023-02-28T16:21:57;12.40;90.30
45849;DHT22;31567;54.600;9.842;2023-02-28T16:25:39;12.20;90.40
45849;DHT22;31567;54.600;9.842;2023-02-28T16:29:24;12.20;90.30
45849;DHT22;31567;54.600;9.842;2023-02-28T16:33:08;12.10;90.20
45849;DHT22;31567;54.600;9.842;2023-02-28T16:36:48;11.90;90.30
45849;DHT22;31567;54.600;9.842;2023-02-28T16:40:33;11.90;90.40
45849;DHT22;31567;54.600;9.842;2023-02-28T16:44:36;11.80;90.50
45849;DHT22;31567;54.600;9.842;2023-02-28T16:48:16;11.80;90.60
45849;DHT22;31567;54.600;9.842;2023-02-28T16:51:55;11.60;90.80
45849;DHT22;31567;54.600;9.842;2023-02-28T16:55:35;11.60;91.10
45849;DHT22;31567;54.600;9.842;2023-02-28T16:59:19;11.50;91.30
45849;DHT22;31567;54.600;9.842;2023-02-28T17:03:00;11.50;91.60
45849;DHT22;31567;54.600;9.842;2023-02-28T17:06:41;11.40;91.80
45849;DHT22;31567;54.600;9.842;2023-02-28T17:10:23;11.30;92.00
45849;DHT22;31567;54.600;9.842;2023-02-28T17:14:03;11.20;92.20
45849;DHT22;31567;54.600;9.842;2023-02-28T17:17:44;11.10;92.50
45849;DHT22;31567;54.600;9.842;2023-02-28T17:21:24;11.00;92.80
45849;DHT22;31567;54.600;9.842;2023-02-28T17:25:04;10.90;93.10
45849;DHT22;31567;54.600;9.842;2023-02-28T17:28:44;10.80;93.30
45849;DHT22;31567;54.600;9.842;2023-02-28T17:32:24;10.70;93.60
45849;DHT22;31567;54.600;9.842;2023-02-28T17:36:04;10.60;93.80
45849;DHT22;31567;54.600;9.842;2023-02-28T17:39:43;10.40;93.90
45849;DHT22;31567;54.600;9.842;2023-02-28T17:43:24;10.20;94.10
45849;DHT22;31567;54.600;9.842;2023-02-28T17:47:04;10.10;94.40
45849;DHT22;31567;54.600;9.842;2023-02-28T17:50:44;10.00;94.60
45849;DHT22;31567;54.600;9.842;2023-02-28T17:54:23;9.90;94.80
45849;DHT22;31567;54.600;9.842;2023-02-28T17:58:03;9.80;94.90
45849;DHT22;31567;54.600;9.842;2023-02-28T18:01:42;9.60;95.10
45849;DHT22;31567;54.600;9.842;2023-02-28T18:05:22;9.60;95.30
45849;DHT22;31567;54.600;9.842;2023-02-28T18:09:02;9.40;95.40
45849;DHT22;31567;54.600;9.842;2023-02-28T18:12:41;9.20;95.50
45849;DHT22;31567;54.600;9.842;2023-02-28T18:16:22;9.00;95.70
45849;DHT22;31567;54.600;9.842;2023-02-28T18:20:01;8.80;96.00
45849;DHT22;31567;54.600;9.842;2023-02-28T18:23:43;8.70;96.30
45849;DHT22;31567;54.600;9.842;2023-02-28T18:27:30;8.60;96.60
45849;DHT22;31567;54.600;9.842;2023-02-28T18:31:15;8.50;96.90
45849;DHT22;31567;54.600;9.842;2023-02-28T18:34:55;8.40;97.30
45849;DHT22;31567;54.600;9.842;2023-02-28T18:38:35;8.40;97.40
45849;DHT22;31567;54.600;9.842;2023-02-28T18:42:15;8.30;97.50
45849;DHT22;31567;54.600;9.842;2023-02-28T18:45:54;8.20;97.70
45849;DHT22;31567;54.600;9.842;2023-02-28T18:49:34;8.20;97.90
45849;DHT22;31567;54.600;9.842;2023-02-28T18:53:17;8.20;98.00
45849;DHT22;31567;54.600;9.842;2023-02-28T18:56:57;8.20;98.20
45849;DHT22;31567;54.600;9.842;2023-02-28T19:00:37;8.10;98.30
45849;DHT22;31567;54.600;9.842;2023-02-28T19:04:17;8.10;98.40
45849;DHT22;31567;54.600;9.842;2023-02-28T19:07:56;8.00;98.30
45849;DHT22;31567;54.600;9.842;2023-02-28T19:11:36;7.90;98.30
45849;DHT22;31567;54.600;9.842;2023-02-28T19:15:15;7.90;98.50
45849;DHT22;31567;54.600;9.842;2023-02-28T19:18:55;7.90;98.60
45849;DHT22;31567;54.600;9.842;2023-02-28T19:22:36;7.90;98.70
45849;DHT22;31567;54.600;9.842;2023-02-28T19:26:18;7.90;98.80
45849;DHT22;31567;54.600;9.842;2023-02-28T19:29:58;7.80;98.90
45849;DHT22;31567;54.600;9.842;2023-02-28T19:33:38;7.80;99.00
45849;DHT22;31567;54.600;9.842;2023-02-28T19:37:17;7.80;99.20
45849;DHT22;31567;54.600;9.842;2023-02-28T19:41:05;7.70;99.20
45849;DHT22;31567;54.600;9.842;2023-02-28T19:44:45;7.60;99.40
45849;DHT22;31567;54.600;9.842;2023-02-28T19:48:24;7.50;99.40
45849;DHT22;31567;54.600;9.842;2023-02-28T19:52:06;7.50;99.50
45849;DHT22;31567;54.600;9.842;2023-02-28T19:55:46;7.40;99.70
45849;DHT22;31567;54.600;9.842;2023-02-28T19:59:29;7.30;99.80
45849;DHT22;31567;54.600;9.842;2023-02-28T20:03:09;7.20;99.90
45849;DHT22;31567;54.600;9.842;2023-02-28T20:06:48;7.20;99.90
45849;DHT22;31567;54.600;9.842;2023-02-28T20:10:28;7.10;99.90
45849;DHT22;31567;54.600;9.842;2023-02-28T20:14:10;6.90;99.80
45849;DHT22;31567;54.600;9.842;2023-02-28T20:17:51;6.80;99.90
45849;DHT22;31567;54.600;9.842;2023-02-28T20:21:31;6.80;99.90
45849;DHT22;31567;54.600;9.842;2023-02-28T20:25:10;6.80;99.90
45849;DHT22;31567;54.600;9.842;2023-02-28T20:28:50;6.70;99.90
45849;DHT22;31567;54.600;9.842;2023-02-28T20:32:30;6.60;99.90
45849;DHT22;31567;54.600;9.842;2023-02-28T20:36:09;6.60;99.90
45849;DHT22;31567;54.600;9.842;2023-02-28T20:39:50;6.50;99.90
45849;DHT22;31567;54.600;9.842;2023-02-28T20:43:31;6.40;99.90
45849;DHT22;31567;54.600;9.842;2023-02-28T20:47:10;6.40;99.90
45849;DHT22;31567;54.600;9.842;2023-02-28T20:50:51;6.30;99.90
45849;DHT22;31567;54.600;9.842;2023-02-28T20:54:32;6.20;99.90
45849;DHT22;31567;54.600;9.842;2023-02-28T20:58:14;6.20;99.90
45849;DHT22;31567;54.600;9.842;2023-02-28T21:01:53;6.10;99.90
45849;DHT22;31567;54.600;9.842;2023-02-28T21:05:34;6.00;99.90
45849;DHT22;31567;54.600;9.842;2023-02-28T21:09:14;6.00;99.90
45849;DHT22;31567;54.600;9.842;2023-02-28T21:12:54;5.90;99.90
45849;DHT22;31567;54.600;9.842;2023-02-28T21:16:36;5.90;99.90
45849;DHT22;31567;54.600;9.842;2023-02-28T21:20:15;5.90;99.90
45849;DHT22;31567;54.600;9.842;2023-02-28T21:24:00;5.80;99.90
45849;DHT22;31567;54.600;9.842;2023-02-28T21:27:40;5.70;99.90
45849;DHT22;31567;54.600;9.842;2023-02-28T21:31:22;5.60;99.90
45849;DHT22;31567;54.600;9.842;2023-02-28T21:35:02;5.50;99.90
45849;DHT22;31567;54.600;9.842;2023-02-28T21:38:43;5.50;99.90
45849;DHT22;31567;54.600;9.842;2023-02-28T21:42:23;5.40;99.90
45849;DHT22;31567;54.600;9.842;2023-02-28T21:46:09;5.30;99.90
45849;DHT22;31567;54.600;9.842;2023-02-28T21:49:50;5.20;99.90
45849;DHT22;31567;54.600;9.842;2023-02-28T21:53:30;5.20;99.90
45849;DHT22;31567;54.600;9.842;2023-02-28T21:57:10;5.20;99.90
45849;DHT22;31567;54.600;9.842;2023-02-28T22:00:52;5.20;99.90
45849;DHT22;31567;54.600;9.842;2023-02-28T22:04:31;5.30;99.90
45849;DHT22;31567;54.600;9.842;2023-02-28T22:08:11;5.30;99.90
45849;DHT22;31567;54.600;9.842;2023-02-28T22:11:50;5.30;99.90
45849;DHT22;31567;54.600;9.842;2023-02-28T22:15:30;5.30;99.90
45849;DHT22;31567;54.600;9.842;2023-02-28T22:19:10;5.30;99.90
45849;DHT22;31567;54.600;9.842;2023-02-28T22:22:50;5.30;99.90
45849;DHT22;31567;54.600;9.842;2023-02-28T22:26:30;5.30;99.90
45849;DHT22;31567;54.600;9.842;2023-02-28T22:30:10;5.30;99.90
45849;DHT22;31567;54.600;9.842;2023-02-28T22:33:53;5.30;99.90
45849;DHT22;31567;54.600;9.842;2023-02-28T22:37:33;5.20;99.90
45849;DHT22;31567;54.600;9.842;2023-02-28T22:41:13;5.10;99.90
45849;DHT22;31567;54.600;9.842;2023-02-28T22:44:53;5.10;99.90
45849;DHT22;31567;54.600;9.842;2023-02-28T22:48:33;5.00;99.90
45849;DHT22;31567;54.600;9.842;2023-02-28T22:52:13;4.90;99.90
45849;DHT22;31567;54.600;9.842;2023-02-28T22:55:54;4.80;99.90
45849;DHT22;31567;54.600;9.842;2023-02-28T22:59:34;4.80;99.90
45849;DHT22;31567;54.600;9.842;2023-02-28T23:03:13;4.80;99.90
45849;DHT22;31567;54.600;9.842;2023-02-28T23:06:53;4.80;99.90
45849;DHT22;31567;54.600;9.842;2023-02-28T23:10:32;4.70;99.90
45849;DHT22;31567;54.600;9.842;2023-02-28T23:14:14;4.80;99.90
45849;DHT22;31567;54.600;9.842;2023-02-28T23:17:53;4.70;99.90
45849;DHT22;31567;54.600;9.842;2023-02-28T23:21:33;4.70;99.90
45849;DHT22;31567;54.600;9.842;2023-02-28T23:25:13;4.60;99.90
45849;DHT22;31567;54.600;9.842;2023-02-28T23:28:53;4.60;99.90
45849;DHT22;31567;54.600;9.842;2023-02-28T23:32:33;4.50;99.90
45849;DHT22;31567;54.600;9.842;2023-02-28T23:36:14;4.50;99.90
45849;DHT22;31567;54.600;9.842;2023-02-28T23:39:54;4.60;99.90
45849;DHT22;31567;54.600;9.842;2023-02-28T23:43:34;4.60;99.90
45849;DHT22;31567;54.600;9.842;2023-02-28T23:47:14;4.60;99.90
45849;DHT22;31567;54.600;9.842;2023-02-28T23:51:00;4.50;99.90
45849;DHT22;31567;54.600;9.842;2023-02-28T23:54:39;4.60;99.90
45849;DHT22;31567;54.600;9.842;2023-02-28T23:58:19;4.50;99.90
